Ruby, Michigan
Current Conditions -  °F | °C
As of 9:37 AM on Friday 28 Nov 2014 (Local Time) from KPHN Reporting Station
Scattered Clouds Scattered Clouds  
Wind Chill: 19°   Ceiling: Unl
Heat Index: 19°   Visibility: 10mi
Dew Point: 10°   Wind: 3mph
Humidity: 68%   Direction: 290°WNW
Pressure: 30.32"   Gusts: NA
Location:  43.0355°N, 82.5759°W
Report Text: KPHN 281437Z AUTO 29003KT 10SM SCT110 M07/M12 A3032 RMK AO2
Loading
Personal Weather Stations






























Interactive Weather Map New forecast layout! Learn more

10-Day Weather Forecast

Advertisements
Track Severe Weather on mobile